Gordon, Texas
Current Conditions -  °F | °C
As of 2:53 PM on Friday 24 Oct 2014 (Local Time) from KMWL Reporting Station
Clear Clear  
Wind Chill: 86°   Ceiling: Unl
Heat Index: 86°   Visibility: 10mi
Dew Point: 58°   Wind: 9mph
Humidity: 38%   Direction: 190°S
Pressure: 30.06"   Gusts: 17mph
Location:  32.55°N, 98.37°W
Report Text: KMWL 241953Z AUTO 19008G15KT 10SM CLR 30/14 A3006 RMK AO2 SLP168 T03000144
Loading
Personal Weather Stations






























Interactive Weather Map
Tropical Storm Tracking
New forecast layout! Learn more

10-Day Weather Forecast

Advertisements
Track Severe Weather on mobile